sensor_id;sensor_type;location;lat;lon;timestamp;P1;durP1;ratioP1;P2;durP2;ratioP2
35530;SDS011;21637;53.352;-6.356;2024-02-16T00:02:19;16.77;;;7.10;;
35530;SDS011;21637;53.352;-6.356;2024-02-16T00:04:45;20.67;;;7.38;;
35530;SDS011;21637;53.352;-6.356;2024-02-16T00:07:11;20.02;;;7.03;;
35530;SDS011;21637;53.352;-6.356;2024-02-16T00:09:37;12.00;;;6.13;;
35530;SDS011;21637;53.352;-6.356;2024-02-16T00:12:02;12.18;;;5.53;;
35530;SDS011;21637;53.352;-6.356;2024-02-16T00:14:28;16.75;;;6.07;;
35530;SDS011;21637;53.352;-6.356;2024-02-16T00:16:54;16.05;;;6.40;;
35530;SDS011;21637;53.352;-6.356;2024-02-16T00:19:20;18.85;;;5.72;;
35530;SDS011;21637;53.352;-6.356;2024-02-16T00:21:46;18.38;;;5.55;;
35530;SDS011;21637;53.352;-6.356;2024-02-16T00:24:11;10.57;;;5.93;;
35530;SDS011;21637;53.352;-6.356;2024-02-16T00:26:37;10.55;;;5.78;;
35530;SDS011;21637;53.352;-6.356;2024-02-16T00:29:04;17.85;;;6.30;;
35530;SDS011;21637;53.352;-6.356;2024-02-16T00:31:30;12.93;;;6.28;;
35530;SDS011;21637;53.352;-6.356;2024-02-16T00:33:59;13.07;;;5.82;;
35530;SDS011;21637;53.352;-6.356;2024-02-16T00:36:26;12.55;;;5.47;;
35530;SDS011;21637;53.352;-6.356;2024-02-16T00:38:52;13.82;;;5.97;;
35530;SDS011;21637;53.352;-6.356;2024-02-16T00:41:19;12.48;;;5.25;;
35530;SDS011;21637;53.352;-6.356;2024-02-16T00:43:46;10.80;;;6.22;;
35530;SDS011;21637;53.352;-6.356;2024-02-16T00:46:12;14.80;;;5.30;;
35530;SDS011;21637;53.352;-6.356;2024-02-16T00:48:38;13.00;;;5.18;;
35530;SDS011;21637;53.352;-6.356;2024-02-16T00:51:03;12.00;;;5.78;;
35530;SDS011;21637;53.352;-6.356;2024-02-16T00:53:29;10.70;;;5.60;;
35530;SDS011;21637;53.352;-6.356;2024-02-16T00:55:55;12.70;;;5.70;;
35530;SDS011;21637;53.352;-6.356;2024-02-16T00:58:21;12.60;;;5.40;;
35530;SDS011;21637;53.352;-6.356;2024-02-16T01:00:46;16.02;;;5.72;;
35530;SDS011;21637;53.352;-6.356;2024-02-16T01:03:12;12.25;;;5.25;;
35530;SDS011;21637;53.352;-6.356;2024-02-16T01:05:38;10.10;;;5.70;;
35530;SDS011;21637;53.352;-6.356;2024-02-16T01:08:06;9.20;;;4.60;;
35530;SDS011;21637;53.352;-6.356;2024-02-16T01:10:32;15.82;;;4.68;;
35530;SDS011;21637;53.352;-6.356;2024-02-16T01:12:57;13.57;;;4.72;;
35530;SDS011;21637;53.352;-6.356;2024-02-16T01:15:23;10.48;;;4.72;;
35530;SDS011;21637;53.352;-6.356;2024-02-16T01:17:49;9.90;;;4.63;;
35530;SDS011;21637;53.352;-6.356;2024-02-16T01:20:15;13.40;;;3.80;;
35530;SDS011;21637;53.352;-6.356;2024-02-16T01:22:41;7.75;;;3.33;;
35530;SDS011;21637;53.352;-6.356;2024-02-16T01:25:08;18.73;;;3.40;;
35530;SDS011;21637;53.352;-6.356;2024-02-16T01:27:34;11.55;;;3.83;;
35530;SDS011;21637;53.352;-6.356;2024-02-16T01:30:00;11.63;;;3.08;;
35530;SDS011;21637;53.352;-6.356;2024-02-16T01:32:26;8.90;;;2.33;;
35530;SDS011;21637;53.352;-6.356;2024-02-16T01:34:52;12.75;;;3.20;;
35530;SDS011;21637;53.352;-6.356;2024-02-16T01:37:18;8.27;;;2.53;;
35530;SDS011;21637;53.352;-6.356;2024-02-16T01:39:44;11.02;;;2.60;;
35530;SDS011;21637;53.352;-6.356;2024-02-16T01:42:09;10.88;;;2.85;;
35530;SDS011;21637;53.352;-6.356;2024-02-16T01:44:36;10.10;;;2.80;;
35530;SDS011;21637;53.352;-6.356;2024-02-16T01:47:03;7.75;;;2.13;;
35530;SDS011;21637;53.352;-6.356;2024-02-16T01:49:29;15.80;;;2.65;;
35530;SDS011;21637;53.352;-6.356;2024-02-16T01:51:56;11.43;;;2.65;;
35530;SDS011;21637;53.352;-6.356;2024-02-16T01:54:22;7.63;;;2.30;;
35530;SDS011;21637;53.352;-6.356;2024-02-16T01:56:48;9.13;;;2.20;;
35530;SDS011;21637;53.352;-6.356;2024-02-16T01:59:16;7.35;;;1.80;;
35530;SDS011;21637;53.352;-6.356;2024-02-16T02:01:42;11.25;;;1.75;;
35530;SDS011;21637;53.352;-6.356;2024-02-16T02:04:07;9.57;;;1.90;;
35530;SDS011;21637;53.352;-6.356;2024-02-16T02:06:33;7.55;;;2.00;;
35530;SDS011;21637;53.352;-6.356;2024-02-16T02:09:00;11.23;;;2.20;;
35530;SDS011;21637;53.352;-6.356;2024-02-16T02:11:26;9.10;;;2.70;;
35530;SDS011;21637;53.352;-6.356;2024-02-16T02:13:52;8.63;;;1.88;;
35530;SDS011;21637;53.352;-6.356;2024-02-16T02:16:18;7.88;;;1.70;;
35530;SDS011;21637;53.352;-6.356;2024-02-16T02:18:46;8.75;;;2.33;;
35530;SDS011;21637;53.352;-6.356;2024-02-16T02:21:11;7.10;;;1.80;;
35530;SDS011;21637;53.352;-6.356;2024-02-16T02:23:39;8.60;;;2.55;;
35530;SDS011;21637;53.352;-6.356;2024-02-16T02:26:05;6.63;;;1.73;;
35530;SDS011;21637;53.352;-6.356;2024-02-16T02:28:32;5.47;;;1.58;;
35530;SDS011;21637;53.352;-6.356;2024-02-16T02:30:58;5.40;;;1.52;;
35530;SDS011;21637;53.352;-6.356;2024-02-16T02:33:24;6.90;;;1.60;;
35530;SDS011;21637;53.352;-6.356;2024-02-16T02:35:50;5.97;;;1.80;;
35530;SDS011;21637;53.352;-6.356;2024-02-16T02:38:16;7.97;;;1.67;;
35530;SDS011;21637;53.352;-6.356;2024-02-16T02:40:42;5.38;;;1.30;;
35530;SDS011;21637;53.352;-6.356;2024-02-16T02:43:07;6.90;;;1.60;;
35530;SDS011;21637;53.352;-6.356;2024-02-16T02:45:33;4.45;;;1.38;;
35530;SDS011;21637;53.352;-6.356;2024-02-16T02:47:59;3.47;;;1.23;;
35530;SDS011;21637;53.352;-6.356;2024-02-16T02:50:25;4.38;;;1.10;;
35530;SDS011;21637;53.352;-6.356;2024-02-16T02:52:51;4.63;;;1.40;;
35530;SDS011;21637;53.352;-6.356;2024-02-16T02:55:17;6.05;;;1.70;;
35530;SDS011;21637;53.352;-6.356;2024-02-16T02:57:43;9.45;;;1.70;;
35530;SDS011;21637;53.352;-6.356;2024-02-16T03:00:09;9.27;;;2.05;;
35530;SDS011;21637;53.352;-6.356;2024-02-16T03:02:37;6.10;;;1.70;;
35530;SDS011;21637;53.352;-6.356;2024-02-16T03:05:04;8.20;;;1.65;;
35530;SDS011;21637;53.352;-6.356;2024-02-16T03:07:34;7.32;;;1.90;;
35530;SDS011;21637;53.352;-6.356;2024-02-16T03:10:01;8.23;;;1.60;;
35530;SDS011;21637;53.352;-6.356;2024-02-16T03:12:28;4.55;;;1.40;;
35530;SDS011;21637;53.352;-6.356;2024-02-16T03:14:54;8.27;;;1.73;;
35530;SDS011;21637;53.352;-6.356;2024-02-16T03:17:21;5.03;;;1.38;;
35530;SDS011;21637;53.352;-6.356;2024-02-16T03:19:46;5.47;;;1.30;;
35530;SDS011;21637;53.352;-6.356;2024-02-16T03:22:12;5.88;;;1.30;;
35530;SDS011;21637;53.352;-6.356;2024-02-16T03:24:38;6.63;;;2.05;;
35530;SDS011;21637;53.352;-6.356;2024-02-16T03:27:04;5.47;;;1.42;;
35530;SDS011;21637;53.352;-6.356;2024-02-16T03:29:30;9.30;;;1.52;;
35530;SDS011;21637;53.352;-6.356;2024-02-16T03:31:56;4.57;;;1.35;;
35530;SDS011;21637;53.352;-6.356;2024-02-16T03:34:21;8.23;;;1.30;;
35530;SDS011;21637;53.352;-6.356;2024-02-16T03:36:47;7.15;;;1.40;;
35530;SDS011;21637;53.352;-6.356;2024-02-16T03:39:13;3.28;;;1.10;;
35530;SDS011;21637;53.352;-6.356;2024-02-16T03:41:44;10.52;;;1.90;;
35530;SDS011;21637;53.352;-6.356;2024-02-16T03:44:13;7.22;;;1.20;;
35530;SDS011;21637;53.352;-6.356;2024-02-16T03:46:41;5.00;;;1.40;;
35530;SDS011;21637;53.352;-6.356;2024-02-16T03:49:07;3.88;;;1.17;;
35530;SDS011;21637;53.352;-6.356;2024-02-16T03:51:33;8.77;;;1.73;;
35530;SDS011;21637;53.352;-6.356;2024-02-16T03:53:58;6.68;;;1.33;;
35530;SDS011;21637;53.352;-6.356;2024-02-16T03:56:24;5.63;;;1.30;;
35530;SDS011;21637;53.352;-6.356;2024-02-16T03:58:50;5.28;;;1.42;;
35530;SDS011;21637;53.352;-6.356;2024-02-16T04:01:15;7.35;;;1.40;;
35530;SDS011;21637;53.352;-6.356;2024-02-16T04:03:41;7.03;;;1.42;;
35530;SDS011;21637;53.352;-6.356;2024-02-16T04:06:07;3.10;;;1.23;;
35530;SDS011;21637;53.352;-6.356;2024-02-16T04:08:33;6.40;;;1.67;;
35530;SDS011;21637;53.352;-6.356;2024-02-16T04:10:59;4.15;;;1.23;;
35530;SDS011;21637;53.352;-6.356;2024-02-16T04:13:24;7.05;;;1.60;;
35530;SDS011;21637;53.352;-6.356;2024-02-16T04:15:50;7.57;;;1.60;;
35530;SDS011;21637;53.352;-6.356;2024-02-16T04:18:16;3.53;;;1.20;;
35530;SDS011;21637;53.352;-6.356;2024-02-16T04:20:43;3.65;;;1.20;;
35530;SDS011;21637;53.352;-6.356;2024-02-16T04:23:09;5.38;;;1.55;;
35530;SDS011;21637;53.352;-6.356;2024-02-16T04:25:35;7.32;;;1.40;;
35530;SDS011;21637;53.352;-6.356;2024-02-16T04:28:01;4.90;;;1.40;;
35530;SDS011;21637;53.352;-6.356;2024-02-16T04:30:26;5.63;;;1.52;;
35530;SDS011;21637;53.352;-6.356;2024-02-16T04:32:52;8.15;;;1.40;;
35530;SDS011;21637;53.352;-6.356;2024-02-16T04:35:18;5.43;;;1.40;;
35530;SDS011;21637;53.352;-6.356;2024-02-16T04:37:44;6.40;;;1.52;;
35530;SDS011;21637;53.352;-6.356;2024-02-16T04:40:09;3.35;;;1.40;;
35530;SDS011;21637;53.352;-6.356;2024-02-16T04:42:37;4.70;;;1.10;;
35530;SDS011;21637;53.352;-6.356;2024-02-16T04:45:05;3.38;;;1.08;;
35530;SDS011;21637;53.352;-6.356;2024-02-16T04:47:33;4.18;;;1.45;;
35530;SDS011;21637;53.352;-6.356;2024-02-16T04:50:00;7.32;;;1.58;;
35530;SDS011;21637;53.352;-6.356;2024-02-16T04:52:25;3.00;;;1.13;;
35530;SDS011;21637;53.352;-6.356;2024-02-16T04:54:51;1.25;;;0.85;;
35530;SDS011;21637;53.352;-6.356;2024-02-16T04:57:17;5.03;;;1.15;;
35530;SDS011;21637;53.352;-6.356;2024-02-16T04:59:43;4.55;;;1.20;;
35530;SDS011;21637;53.352;-6.356;2024-02-16T05:02:08;5.72;;;1.38;;
35530;SDS011;21637;53.352;-6.356;2024-02-16T05:04:34;6.30;;;1.50;;
35530;SDS011;21637;53.352;-6.356;2024-02-16T05:07:00;3.75;;;1.05;;
35530;SDS011;21637;53.352;-6.356;2024-02-16T05:09:25;3.60;;;1.85;;
35530;SDS011;21637;53.352;-6.356;2024-02-16T05:11:51;4.57;;;1.55;;
35530;SDS011;21637;53.352;-6.356;2024-02-16T05:14:17;5.20;;;1.50;;
35530;SDS011;21637;53.352;-6.356;2024-02-16T05:16:46;3.20;;;1.13;;
35530;SDS011;21637;53.352;-6.356;2024-02-16T05:19:12;1.95;;;1.25;;
35530;SDS011;21637;53.352;-6.356;2024-02-16T05:21:38;2.85;;;1.27;;
35530;SDS011;21637;53.352;-6.356;2024-02-16T05:24:04;2.88;;;1.25;;
35530;SDS011;21637;53.352;-6.356;2024-02-16T05:26:30;5.65;;;1.70;;
35530;SDS011;21637;53.352;-6.356;2024-02-16T05:28:56;5.57;;;1.88;;
35530;SDS011;21637;53.352;-6.356;2024-02-16T05:31:22;4.90;;;1.50;;
35530;SDS011;21637;53.352;-6.356;2024-02-16T05:33:48;4.45;;;1.30;;
35530;SDS011;21637;53.352;-6.356;2024-02-16T05:38:49;5.55;;;1.92;;
35530;SDS011;21637;53.352;-6.356;2024-02-16T05:41:16;5.32;;;1.83;;
35530;SDS011;21637;53.352;-6.356;2024-02-16T05:43:45;4.40;;;1.17;;
35530;SDS011;21637;53.352;-6.356;2024-02-16T05:46:14;5.25;;;1.95;;
35530;SDS011;21637;53.352;-6.356;2024-02-16T05:48:41;4.85;;;1.30;;
35530;SDS011;21637;53.352;-6.356;2024-02-16T05:51:07;3.95;;;1.58;;
35530;SDS011;21637;53.352;-6.356;2024-02-16T05:53:33;2.47;;;1.50;;
35530;SDS011;21637;53.352;-6.356;2024-02-16T05:56:00;2.30;;;1.30;;
35530;SDS011;21637;53.352;-6.356;2024-02-16T05:58:26;2.05;;;1.20;;
35530;SDS011;21637;53.352;-6.356;2024-02-16T06:00:52;5.03;;;1.75;;
35530;SDS011;21637;53.352;-6.356;2024-02-16T06:03:19;3.60;;;1.42;;
35530;SDS011;21637;53.352;-6.356;2024-02-16T06:05:45;3.20;;;1.30;;
35530;SDS011;21637;53.352;-6.356;2024-02-16T06:08:11;3.70;;;1.27;;
35530;SDS011;21637;53.352;-6.356;2024-02-16T06:10:37;4.05;;;1.30;;
35530;SDS011;21637;53.352;-6.356;2024-02-16T06:13:03;3.03;;;1.27;;
35530;SDS011;21637;53.352;-6.356;2024-02-16T06:15:29;4.53;;;1.33;;
35530;SDS011;21637;53.352;-6.356;2024-02-16T06:17:55;1.58;;;1.30;;
35530;SDS011;21637;53.352;-6.356;2024-02-16T06:20:21;5.32;;;1.40;;
35530;SDS011;21637;53.352;-6.356;2024-02-16T06:22:47;2.03;;;1.17;;
35530;SDS011;21637;53.352;-6.356;2024-02-16T06:25:13;1.15;;;1.05;;
35530;SDS011;21637;53.352;-6.356;2024-02-16T06:27:40;2.47;;;1.20;;
35530;SDS011;21637;53.352;-6.356;2024-02-16T06:30:06;1.85;;;1.30;;
35530;SDS011;21637;53.352;-6.356;2024-02-16T06:32:37;3.20;;;1.00;;
35530;SDS011;21637;53.352;-6.356;2024-02-16T06:35:03;2.15;;;1.08;;
35530;SDS011;21637;53.352;-6.356;2024-02-16T06:37:29;3.70;;;1.05;;
35530;SDS011;21637;53.352;-6.356;2024-02-16T06:39:57;3.38;;;1.30;;
35530;SDS011;21637;53.352;-6.356;2024-02-16T06:42:22;3.45;;;1.20;;
35530;SDS011;21637;53.352;-6.356;2024-02-16T06:44:48;2.25;;;1.20;;
35530;SDS011;21637;53.352;-6.356;2024-02-16T06:47:14;2.78;;;1.30;;
35530;SDS011;21637;53.352;-6.356;2024-02-16T06:49:40;3.70;;;1.10;;
35530;SDS011;21637;53.352;-6.356;2024-02-16T06:52:05;2.47;;;1.02;;
35530;SDS011;21637;53.352;-6.356;2024-02-16T06:54:32;4.43;;;1.33;;
35530;SDS011;21637;53.352;-6.356;2024-02-16T06:56:58;2.15;;;1.45;;
35530;SDS011;21637;53.352;-6.356;2024-02-16T06:59:24;2.15;;;1.20;;
35530;SDS011;21637;53.352;-6.356;2024-02-16T07:01:50;1.95;;;1.10;;
35530;SDS011;21637;53.352;-6.356;2024-02-16T07:04:16;3.42;;;1.25;;
35530;SDS011;21637;53.352;-6.356;2024-02-16T07:06:41;4.22;;;1.42;;
35530;SDS011;21637;53.352;-6.356;2024-02-16T07:09:07;4.47;;;1.20;;
35530;SDS011;21637;53.352;-6.356;2024-02-16T07:11:33;2.53;;;1.05;;
35530;SDS011;21637;53.352;-6.356;2024-02-16T07:13:59;3.35;;;1.10;;
35530;SDS011;21637;53.352;-6.356;2024-02-16T07:16:27;3.22;;;1.00;;
35530;SDS011;21637;53.352;-6.356;2024-02-16T07:18:53;3.05;;;1.10;;
35530;SDS011;21637;53.352;-6.356;2024-02-16T07:21:19;3.80;;;1.25;;
35530;SDS011;21637;53.352;-6.356;2024-02-16T07:23:47;2.38;;;0.93;;
35530;SDS011;21637;53.352;-6.356;2024-02-16T07:26:13;1.63;;;0.95;;
35530;SDS011;21637;53.352;-6.356;2024-02-16T07:28:39;4.32;;;1.38;;
35530;SDS011;21637;53.352;-6.356;2024-02-16T07:31:05;3.60;;;1.10;;
35530;SDS011;21637;53.352;-6.356;2024-02-16T07:33:31;1.95;;;1.00;;
35530;SDS011;21637;53.352;-6.356;2024-02-16T07:35:57;1.77;;;1.10;;
35530;SDS011;21637;53.352;-6.356;2024-02-16T07:38:22;4.78;;;1.13;;
35530;SDS011;21637;53.352;-6.356;2024-02-16T07:40:48;2.45;;;1.20;;
35530;SDS011;21637;53.352;-6.356;2024-02-16T07:43:15;2.53;;;1.00;;
35530;SDS011;21637;53.352;-6.356;2024-02-16T07:45:42;2.30;;;0.77;;
35530;SDS011;21637;53.352;-6.356;2024-02-16T07:48:08;2.33;;;0.95;;
35530;SDS011;21637;53.352;-6.356;2024-02-16T07:50:33;2.95;;;1.10;;
35530;SDS011;21637;53.352;-6.356;2024-02-16T07:52:59;2.05;;;1.50;;
35530;SDS011;21637;53.352;-6.356;2024-02-16T07:55:25;1.88;;;1.15;;
35530;SDS011;21637;53.352;-6.356;2024-02-16T07:57:51;3.53;;;1.10;;
35530;SDS011;21637;53.352;-6.356;2024-02-16T08:00:17;2.78;;;1.13;;
35530;SDS011;21637;53.352;-6.356;2024-02-16T08:02:43;2.00;;;1.17;;
35530;SDS011;21637;53.352;-6.356;2024-02-16T08:05:12;3.85;;;1.13;;
35530;SDS011;21637;53.352;-6.356;2024-02-16T08:07:41;2.05;;;1.08;;
35530;SDS011;21637;53.352;-6.356;2024-02-16T08:10:07;3.05;;;1.13;;
35530;SDS011;21637;53.352;-6.356;2024-02-16T08:12:34;1.17;;;0.95;;
35530;SDS011;21637;53.352;-6.356;2024-02-16T08:15:01;3.65;;;1.35;;
35530;SDS011;21637;53.352;-6.356;2024-02-16T08:17:29;1.80;;;0.98;;
35530;SDS011;21637;53.352;-6.356;2024-02-16T08:19:56;2.83;;;0.90;;
35530;SDS011;21637;53.352;-6.356;2024-02-16T08:22:21;1.42;;;0.93;;
35530;SDS011;21637;53.352;-6.356;2024-02-16T08:24:48;2.60;;;1.20;;
35530;SDS011;21637;53.352;-6.356;2024-02-16T08:27:15;1.42;;;0.95;;
35530;SDS011;21637;53.352;-6.356;2024-02-16T08:29:44;3.72;;;1.10;;
35530;SDS011;21637;53.352;-6.356;2024-02-16T08:32:10;3.35;;;1.08;;
35530;SDS011;21637;53.352;-6.356;2024-02-16T08:34:36;1.75;;;0.60;;
35530;SDS011;21637;53.352;-6.356;2024-02-16T08:37:03;1.38;;;0.73;;
35530;SDS011;21637;53.352;-6.356;2024-02-16T08:39:30;0.90;;;0.90;;
35530;SDS011;21637;53.352;-6.356;2024-02-16T08:41:56;1.35;;;1.00;;
35530;SDS011;21637;53.352;-6.356;2024-02-16T08:44:23;1.63;;;0.73;;
35530;SDS011;21637;53.352;-6.356;2024-02-16T08:46:49;3.42;;;1.00;;
35530;SDS011;21637;53.352;-6.356;2024-02-16T08:49:15;2.42;;;0.85;;
35530;SDS011;21637;53.352;-6.356;2024-02-16T08:51:41;1.80;;;0.90;;
35530;SDS011;21637;53.352;-6.356;2024-02-16T08:54:07;0.68;;;0.65;;
35530;SDS011;21637;53.352;-6.356;2024-02-16T08:56:33;1.17;;;0.80;;
35530;SDS011;21637;53.352;-6.356;2024-02-16T08:59:01;1.50;;;0.88;;
35530;SDS011;21637;53.352;-6.356;2024-02-16T09:01:34;1.23;;;0.75;;
35530;SDS011;21637;53.352;-6.356;2024-02-16T09:04:02;1.67;;;0.70;;
35530;SDS011;21637;53.352;-6.356;2024-02-16T09:06:28;0.85;;;0.80;;
35530;SDS011;21637;53.352;-6.356;2024-02-16T09:08:54;1.00;;;0.73;;
35530;SDS011;21637;53.352;-6.356;2024-02-16T09:11:21;1.83;;;0.90;;
35530;SDS011;21637;53.352;-6.356;2024-02-16T09:13:47;1.92;;;0.68;;
35530;SDS011;21637;53.352;-6.356;2024-02-16T09:16:13;1.10;;;1.00;;
35530;SDS011;21637;53.352;-6.356;2024-02-16T09:18:39;1.75;;;0.80;;
35530;SDS011;21637;53.352;-6.356;2024-02-16T09:21:05;1.05;;;0.73;;
35530;SDS011;21637;53.352;-6.356;2024-02-16T09:23:31;1.63;;;0.65;;
35530;SDS011;21637;53.352;-6.356;2024-02-16T09:25:58;2.90;;;1.15;;
35530;SDS011;21637;53.352;-6.356;2024-02-16T09:28:25;1.25;;;0.70;;
35530;SDS011;21637;53.352;-6.356;2024-02-16T09:30:54;2.03;;;0.88;;
35530;SDS011;21637;53.352;-6.356;2024-02-16T09:33:20;2.03;;;0.70;;
35530;SDS011;21637;53.352;-6.356;2024-02-16T09:35:47;1.83;;;0.77;;
35530;SDS011;21637;53.352;-6.356;2024-02-16T09:38:13;2.60;;;0.80;;
35530;SDS011;21637;53.352;-6.356;2024-02-16T09:40:39;2.28;;;0.70;;
35530;SDS011;21637;53.352;-6.356;2024-02-16T09:43:05;1.08;;;0.50;;
35530;SDS011;21637;53.352;-6.356;2024-02-16T09:45:31;2.42;;;0.85;;
35530;SDS011;21637;53.352;-6.356;2024-02-16T09:47:58;4.22;;;1.20;;
35530;SDS011;21637;53.352;-6.356;2024-02-16T09:50:25;1.17;;;0.73;;
35530;SDS011;21637;53.352;-6.356;2024-02-16T09:52:54;1.52;;;0.82;;
35530;SDS011;21637;53.352;-6.356;2024-02-16T09:55:21;2.10;;;0.65;;
35530;SDS011;21637;53.352;-6.356;2024-02-16T09:57:57;1.35;;;0.50;;
35530;SDS011;21637;53.352;-6.356;2024-02-16T10:00:24;2.33;;;0.60;;
35530;SDS011;21637;53.352;-6.356;2024-02-16T10:02:49;0.40;;;0.30;;
35530;SDS011;21637;53.352;-6.356;2024-02-16T10:05:16;1.88;;;0.52;;
35530;SDS011;21637;53.352;-6.356;2024-02-16T10:07:43;1.27;;;0.57;;
35530;SDS011;21637;53.352;-6.356;2024-02-16T10:10:25;1.33;;;0.32;;
35530;SDS011;21637;53.352;-6.356;2024-02-16T10:13:05;1.70;;;0.55;;
35530;SDS011;21637;53.352;-6.356;2024-02-16T10:15:33;2.70;;;0.52;;
35530;SDS011;21637;53.352;-6.356;2024-02-16T10:18:00;1.27;;;0.60;;
35530;SDS011;21637;53.352;-6.356;2024-02-16T10:20:31;2.00;;;0.80;;
35530;SDS011;21637;53.352;-6.356;2024-02-16T10:23:10;2.88;;;0.80;;
35530;SDS011;21637;53.352;-6.356;2024-02-16T10:25:40;6.53;;;1.60;;
35530;SDS011;21637;53.352;-6.356;2024-02-16T10:28:10;0.70;;;0.45;;
35530;SDS011;21637;53.352;-6.356;2024-02-16T10:30:42;0.50;;;0.45;;
35530;SDS011;21637;53.352;-6.356;2024-02-16T10:33:09;1.00;;;0.40;;
35530;SDS011;21637;53.352;-6.356;2024-02-16T10:35:39;1.58;;;0.52;;
35530;SDS011;21637;53.352;-6.356;2024-02-16T10:38:07;2.95;;;0.60;;
35530;SDS011;21637;53.352;-6.356;2024-02-16T10:40:40;2.13;;;0.57;;
35530;SDS011;21637;53.352;-6.356;2024-02-16T10:43:06;2.40;;;0.70;;
35530;SDS011;21637;53.352;-6.356;2024-02-16T10:45:42;1.17;;;0.80;;
35530;SDS011;21637;53.352;-6.356;2024-02-16T10:48:08;1.20;;;0.60;;
35530;SDS011;21637;53.352;-6.356;2024-02-16T10:50:35;2.10;;;0.50;;
35530;SDS011;21637;53.352;-6.356;2024-02-16T10:53:04;1.70;;;0.68;;
35530;SDS011;21637;53.352;-6.356;2024-02-16T10:55:41;2.10;;;0.55;;
35530;SDS011;21637;53.352;-6.356;2024-02-16T10:58:09;2.05;;;0.80;;
35530;SDS011;21637;53.352;-6.356;2024-02-16T11:00:47;3.83;;;0.68;;
35530;SDS011;21637;53.352;-6.356;2024-02-16T11:03:23;1.17;;;0.57;;
35530;SDS011;21637;53.352;-6.356;2024-02-16T11:05:50;0.93;;;0.60;;
35530;SDS011;21637;53.352;-6.356;2024-02-16T11:08:17;2.38;;;0.80;;
35530;SDS011;21637;53.352;-6.356;2024-02-16T11:11:00;3.45;;;0.80;;
35530;SDS011;21637;53.352;-6.356;2024-02-16T11:13:28;4.80;;;0.90;;
35530;SDS011;21637;53.352;-6.356;2024-02-16T11:15:58;3.47;;;0.68;;
35530;SDS011;21637;53.352;-6.356;2024-02-16T11:18:27;2.92;;;0.70;;
35530;SDS011;21637;53.352;-6.356;2024-02-16T11:20:53;2.35;;;0.55;;
35530;SDS011;21637;53.352;-6.356;2024-02-16T11:23:24;2.05;;;0.57;;
35530;SDS011;21637;53.352;-6.356;2024-02-16T11:25:54;3.90;;;0.80;;
35530;SDS011;21637;53.352;-6.356;2024-02-16T11:28:36;2.45;;;1.02;;
35530;SDS011;21637;53.352;-6.356;2024-02-16T11:31:02;5.30;;;1.10;;
35530;SDS011;21637;53.352;-6.356;2024-02-16T11:33:29;1.35;;;0.63;;
35530;SDS011;21637;53.352;-6.356;2024-02-16T11:35:56;4.60;;;1.00;;
35530;SDS011;21637;53.352;-6.356;2024-02-16T11:38:24;1.63;;;0.80;;
35530;SDS011;21637;53.352;-6.356;2024-02-16T11:40:54;2.90;;;1.00;;
35530;SDS011;21637;53.352;-6.356;2024-02-16T11:43:20;2.80;;;0.73;;
35530;SDS011;21637;53.352;-6.356;2024-02-16T11:45:48;0.73;;;0.70;;
35530;SDS011;21637;53.352;-6.356;2024-02-16T11:48:18;4.53;;;1.90;;
35530;SDS011;21637;53.352;-6.356;2024-02-16T11:50:46;5.07;;;0.85;;
35530;SDS011;21637;53.352;-6.356;2024-02-16T11:53:15;3.22;;;0.95;;
35530;SDS011;21637;53.352;-6.356;2024-02-16T11:55:48;4.65;;;1.05;;
35530;SDS011;21637;53.352;-6.356;2024-02-16T11:58:18;4.28;;;1.15;;
35530;SDS011;21637;53.352;-6.356;2024-02-16T12:00:48;1.52;;;0.70;;
35530;SDS011;21637;53.352;-6.356;2024-02-16T12:03:22;1.92;;;0.98;;
35530;SDS011;21637;53.352;-6.356;2024-02-16T12:05:49;5.40;;;0.73;;
35530;SDS011;21637;53.352;-6.356;2024-02-16T12:08:19;2.90;;;0.77;;
35530;SDS011;21637;53.352;-6.356;2024-02-16T12:10:48;3.88;;;0.93;;
35530;SDS011;21637;53.352;-6.356;2024-02-16T12:13:15;3.65;;;0.52;;
35530;SDS011;21637;53.352;-6.356;2024-02-16T12:15:45;2.42;;;0.80;;
35530;SDS011;21637;53.352;-6.356;2024-02-16T12:18:18;1.63;;;0.70;;
35530;SDS011;21637;53.352;-6.356;2024-02-16T12:20:58;2.55;;;0.65;;
35530;SDS011;21637;53.352;-6.356;2024-02-16T12:23:28;2.72;;;0.60;;
35530;SDS011;21637;53.352;-6.356;2024-02-16T12:25:58;5.38;;;1.05;;
35530;SDS011;21637;53.352;-6.356;2024-02-16T12:28:25;1.77;;;0.70;;
35530;SDS011;21637;53.352;-6.356;2024-02-16T12:30:53;4.63;;;1.02;;
35530;SDS011;21637;53.352;-6.356;2024-02-16T12:33:22;4.35;;;0.80;;
35530;SDS011;21637;53.352;-6.356;2024-02-16T12:35:48;5.70;;;1.00;;
35530;SDS011;21637;53.352;-6.356;2024-02-16T12:38:14;2.05;;;0.68;;
35530;SDS011;21637;53.352;-6.356;2024-02-16T12:40:42;1.33;;;0.52;;
35530;SDS011;21637;53.352;-6.356;2024-02-16T12:43:08;2.58;;;0.52;;
35530;SDS011;21637;53.352;-6.356;2024-02-16T12:45:36;3.50;;;1.02;;
35530;SDS011;21637;53.352;-6.356;2024-02-16T12:48:02;2.17;;;0.63;;
35530;SDS011;21637;53.352;-6.356;2024-02-16T12:50:29;4.43;;;0.80;;
35530;SDS011;21637;53.352;-6.356;2024-02-16T12:52:55;3.10;;;0.60;;
35530;SDS011;21637;53.352;-6.356;2024-02-16T12:55:22;3.50;;;0.65;;
35530;SDS011;21637;53.352;-6.356;2024-02-16T12:57:49;4.75;;;0.60;;
35530;SDS011;21637;53.352;-6.356;2024-02-16T13:00:16;3.10;;;0.60;;
35530;SDS011;21637;53.352;-6.356;2024-02-16T13:02:42;2.17;;;0.60;;
35530;SDS011;21637;53.352;-6.356;2024-02-16T13:05:08;1.40;;;0.57;;
35530;SDS011;21637;53.352;-6.356;2024-02-16T13:07:34;1.63;;;0.50;;
35530;SDS011;21637;53.352;-6.356;2024-02-16T13:09:59;3.35;;;0.63;;
35530;SDS011;21637;53.352;-6.356;2024-02-16T13:12:25;3.58;;;0.85;;
35530;SDS011;21637;53.352;-6.356;2024-02-16T13:14:52;1.67;;;0.82;;
35530;SDS011;21637;53.352;-6.356;2024-02-16T13:17:18;1.92;;;0.80;;
35530;SDS011;21637;53.352;-6.356;2024-02-16T13:19:44;5.20;;;1.30;;
35530;SDS011;21637;53.352;-6.356;2024-02-16T13:22:09;5.97;;;0.82;;
35530;SDS011;21637;53.352;-6.356;2024-02-16T13:24:35;4.15;;;0.60;;
35530;SDS011;21637;53.352;-6.356;2024-02-16T13:27:01;2.55;;;0.82;;
35530;SDS011;21637;53.352;-6.356;2024-02-16T13:29:26;0.90;;;0.70;;
35530;SDS011;21637;53.352;-6.356;2024-02-16T13:31:52;2.80;;;0.77;;
35530;SDS011;21637;53.352;-6.356;2024-02-16T13:34:18;1.25;;;0.70;;
35530;SDS011;21637;53.352;-6.356;2024-02-16T13:36:44;4.43;;;0.90;;
35530;SDS011;21637;53.352;-6.356;2024-02-16T13:39:10;3.38;;;0.70;;
35530;SDS011;21637;53.352;-6.356;2024-02-16T13:41:36;6.70;;;0.90;;
35530;SDS011;21637;53.352;-6.356;2024-02-16T13:44:02;5.60;;;0.70;;
35530;SDS011;21637;53.352;-6.356;2024-02-16T13:46:28;5.10;;;1.20;;
35530;SDS011;21637;53.352;-6.356;2024-02-16T13:48:54;4.07;;;0.90;;
35530;SDS011;21637;53.352;-6.356;2024-02-16T13:51:21;3.33;;;0.75;;
35530;SDS011;21637;53.352;-6.356;2024-02-16T13:53:47;3.33;;;0.90;;
35530;SDS011;21637;53.352;-6.356;2024-02-16T13:56:13;3.13;;;1.05;;
35530;SDS011;21637;53.352;-6.356;2024-02-16T13:58:39;8.10;;;1.42;;
35530;SDS011;21637;53.352;-6.356;2024-02-16T14:01:04;4.88;;;1.10;;
35530;SDS011;21637;53.352;-6.356;2024-02-16T14:03:31;5.07;;;1.27;;
35530;SDS011;21637;53.352;-6.356;2024-02-16T14:05:57;6.35;;;1.30;;
35530;SDS011;21637;53.352;-6.356;2024-02-16T14:08:24;4.80;;;1.70;;
35530;SDS011;21637;53.352;-6.356;2024-02-16T14:10:49;3.92;;;1.10;;
35530;SDS011;21637;53.352;-6.356;2024-02-16T14:13:15;4.88;;;1.17;;
35530;SDS011;21637;53.352;-6.356;2024-02-16T14:15:41;7.28;;;1.60;;
35530;SDS011;21637;53.352;-6.356;2024-02-16T14:18:07;8.05;;;1.83;;
35530;SDS011;21637;53.352;-6.356;2024-02-16T14:20:34;6.95;;;1.55;;
35530;SDS011;21637;53.352;-6.356;2024-02-16T14:23:00;9.32;;;1.88;;
35530;SDS011;21637;53.352;-6.356;2024-02-16T14:25:27;9.52;;;2.20;;
35530;SDS011;21637;53.352;-6.356;2024-02-16T14:27:53;7.15;;;1.90;;
35530;SDS011;21637;53.352;-6.356;2024-02-16T14:30:20;10.60;;;2.40;;
35530;SDS011;21637;53.352;-6.356;2024-02-16T14:32:46;8.07;;;1.83;;
35530;SDS011;21637;53.352;-6.356;2024-02-16T14:35:11;9.30;;;1.70;;